sensor_id;sensor_type;location;lat;lon;timestamp;temperature;humidity
4602;DHT22;2313;48.552;9.370;2022-10-16T00:00:44;16.60;99.90
4602;DHT22;2313;48.552;9.370;2022-10-16T00:03:11;16.60;99.90
4602;DHT22;2313;48.552;9.370;2022-10-16T00:05:41;16.60;99.90
4602;DHT22;2313;48.552;9.370;2022-10-16T00:08:09;16.50;99.90
4602;DHT22;2313;48.552;9.370;2022-10-16T00:10:35;16.50;99.90
4602;DHT22;2313;48.552;9.370;2022-10-16T00:13:01;16.50;99.90
4602;DHT22;2313;48.552;9.370;2022-10-16T00:15:26;16.50;99.90
4602;DHT22;2313;48.552;9.370;2022-10-16T00:17:52;16.50;99.90
4602;DHT22;2313;48.552;9.370;2022-10-16T00:20:18;16.50;99.90
4602;DHT22;2313;48.552;9.370;2022-10-16T00:22:43;16.40;99.90
4602;DHT22;2313;48.552;9.370;2022-10-16T00:25:09;16.30;99.90
4602;DHT22;2313;48.552;9.370;2022-10-16T00:27:35;16.30;99.90
4602;DHT22;2313;48.552;9.370;2022-10-16T00:30:01;16.30;99.90
4602;DHT22;2313;48.552;9.370;2022-10-16T00:32:26;16.30;99.90
4602;DHT22;2313;48.552;9.370;2022-10-16T00:34:52;16.20;99.90
4602;DHT22;2313;48.552;9.370;2022-10-16T00:37:20;16.20;99.90
4602;DHT22;2313;48.552;9.370;2022-10-16T00:39:45;16.20;99.90
4602;DHT22;2313;48.552;9.370;2022-10-16T00:42:16;16.20;99.90
4602;DHT22;2313;48.552;9.370;2022-10-16T00:47:19;16.20;99.90
4602;DHT22;2313;48.552;9.370;2022-10-16T00:49:47;16.20;99.90
4602;DHT22;2313;48.552;9.370;2022-10-16T00:52:14;16.20;99.90
4602;DHT22;2313;48.552;9.370;2022-10-16T00:54:40;16.10;99.90
4602;DHT22;2313;48.552;9.370;2022-10-16T00:57:06;16.10;99.90
4602;DHT22;2313;48.552;9.370;2022-10-16T00:59:37;16.20;99.90
4602;DHT22;2313;48.552;9.370;2022-10-16T01:02:06;16.20;99.90
4602;DHT22;2313;48.552;9.370;2022-10-16T01:04:45;16.30;99.90
4602;DHT22;2313;48.552;9.370;2022-10-16T01:07:20;16.20;99.90
4602;DHT22;2313;48.552;9.370;2022-10-16T01:10:14;16.30;99.90
4602;DHT22;2313;48.552;9.370;2022-10-16T01:12:54;16.30;99.90
4602;DHT22;2313;48.552;9.370;2022-10-16T01:20:37;16.30;99.90
4602;DHT22;2313;48.552;9.370;2022-10-16T01:29:16;16.50;99.90
4602;DHT22;2313;48.552;9.370;2022-10-16T01:31:24;16.60;99.90
4602;DHT22;2313;48.552;9.370;2022-10-16T01:34:04;16.60;99.90
4602;DHT22;2313;48.552;9.370;2022-10-16T01:36:46;16.60;99.90
4602;DHT22;2313;48.552;9.370;2022-10-16T01:39:14;16.60;99.90
4602;DHT22;2313;48.552;9.370;2022-10-16T01:41:48;16.50;99.90
4602;DHT22;2313;48.552;9.370;2022-10-16T01:44:22;16.40;99.90
4602;DHT22;2313;48.552;9.370;2022-10-16T01:46:50;16.50;99.90
4602;DHT22;2313;48.552;9.370;2022-10-16T01:49:17;16.50;99.90
4602;DHT22;2313;48.552;9.370;2022-10-16T01:51:46;16.50;99.90
4602;DHT22;2313;48.552;9.370;2022-10-16T01:54:14;16.50;99.90
4602;DHT22;2313;48.552;9.370;2022-10-16T01:56:41;16.50;99.90
4602;DHT22;2313;48.552;9.370;2022-10-16T01:59:11;16.50;99.90
4602;DHT22;2313;48.552;9.370;2022-10-16T02:01:40;16.50;99.90
4602;DHT22;2313;48.552;9.370;2022-10-16T02:04:19;16.60;99.90
4602;DHT22;2313;48.552;9.370;2022-10-16T02:06:45;16.40;99.90
4602;DHT22;2313;48.552;9.370;2022-10-16T02:09:11;16.50;99.90
4602;DHT22;2313;48.552;9.370;2022-10-16T02:11:37;16.60;99.90
4602;DHT22;2313;48.552;9.370;2022-10-16T02:14:05;16.60;99.90
4602;DHT22;2313;48.552;9.370;2022-10-16T02:16:40;16.70;99.90
4602;DHT22;2313;48.552;9.370;2022-10-16T02:19:06;16.60;99.90
4602;DHT22;2313;48.552;9.370;2022-10-16T02:21:40;16.70;99.90
4602;DHT22;2313;48.552;9.370;2022-10-16T02:27:00;16.80;99.90
4602;DHT22;2313;48.552;9.370;2022-10-16T02:29:28;16.80;99.90
4602;DHT22;2313;48.552;9.370;2022-10-16T02:31:58;16.80;99.90
4602;DHT22;2313;48.552;9.370;2022-10-16T02:34:25;16.80;99.90
4602;DHT22;2313;48.552;9.370;2022-10-16T02:36:53;16.80;99.90
4602;DHT22;2313;48.552;9.370;2022-10-16T02:39:20;16.80;99.90
4602;DHT22;2313;48.552;9.370;2022-10-16T02:41:46;16.80;99.90
4602;DHT22;2313;48.552;9.370;2022-10-16T02:44:11;16.80;99.90
4602;DHT22;2313;48.552;9.370;2022-10-16T02:46:37;16.70;99.90
4602;DHT22;2313;48.552;9.370;2022-10-16T02:49:03;16.70;99.90
4602;DHT22;2313;48.552;9.370;2022-10-16T02:51:28;16.60;99.90
4602;DHT22;2313;48.552;9.370;2022-10-16T02:53:54;16.60;99.90
4602;DHT22;2313;48.552;9.370;2022-10-16T02:56:20;16.60;99.90
4602;DHT22;2313;48.552;9.370;2022-10-16T02:58:45;16.60;99.90
4602;DHT22;2313;48.552;9.370;2022-10-16T03:01:11;16.60;99.90
4602;DHT22;2313;48.552;9.370;2022-10-16T03:03:38;16.70;99.90
4602;DHT22;2313;48.552;9.370;2022-10-16T03:06:04;16.60;99.90
4602;DHT22;2313;48.552;9.370;2022-10-16T03:08:30;16.70;99.90
4602;DHT22;2313;48.552;9.370;2022-10-16T03:10:56;16.60;99.90
4602;DHT22;2313;48.552;9.370;2022-10-16T03:13:21;16.60;99.90
4602;DHT22;2313;48.552;9.370;2022-10-16T03:15:47;16.60;99.90
4602;DHT22;2313;48.552;9.370;2022-10-16T03:18:13;16.60;99.90
4602;DHT22;2313;48.552;9.370;2022-10-16T03:20:38;16.60;99.90
4602;DHT22;2313;48.552;9.370;2022-10-16T03:23:04;16.60;99.90
4602;DHT22;2313;48.552;9.370;2022-10-16T03:25:30;16.60;99.90
4602;DHT22;2313;48.552;9.370;2022-10-16T03:27:55;16.60;99.90
4602;DHT22;2313;48.552;9.370;2022-10-16T03:30:21;16.50;99.90
4602;DHT22;2313;48.552;9.370;2022-10-16T03:32:47;16.60;99.90
4602;DHT22;2313;48.552;9.370;2022-10-16T03:35:12;16.60;99.90
4602;DHT22;2313;48.552;9.370;2022-10-16T03:37:38;16.60;99.90
4602;DHT22;2313;48.552;9.370;2022-10-16T03:40:05;16.60;99.90
4602;DHT22;2313;48.552;9.370;2022-10-16T03:42:30;16.60;99.90
4602;DHT22;2313;48.552;9.370;2022-10-16T03:44:56;16.60;99.90
4602;DHT22;2313;48.552;9.370;2022-10-16T03:47:21;16.60;99.90
4602;DHT22;2313;48.552;9.370;2022-10-16T03:49:49;16.60;99.90
4602;DHT22;2313;48.552;9.370;2022-10-16T03:52:15;16.60;99.90
4602;DHT22;2313;48.552;9.370;2022-10-16T03:54:43;16.60;99.90
4602;DHT22;2313;48.552;9.370;2022-10-16T03:57:09;16.70;99.90
4602;DHT22;2313;48.552;9.370;2022-10-16T03:59:34;16.70;99.90
4602;DHT22;2313;48.552;9.370;2022-10-16T04:02:00;16.80;99.90
4602;DHT22;2313;48.552;9.370;2022-10-16T04:04:26;16.70;99.90
4602;DHT22;2313;48.552;9.370;2022-10-16T04:06:51;16.80;99.90
4602;DHT22;2313;48.552;9.370;2022-10-16T04:09:17;16.70;99.90
4602;DHT22;2313;48.552;9.370;2022-10-16T04:11:42;16.70;99.90
4602;DHT22;2313;48.552;9.370;2022-10-16T04:14:08;16.80;99.90
4602;DHT22;2313;48.552;9.370;2022-10-16T04:16:34;16.70;99.90
4602;DHT22;2313;48.552;9.370;2022-10-16T04:18:59;16.80;99.90
4602;DHT22;2313;48.552;9.370;2022-10-16T04:21:25;16.70;99.90
4602;DHT22;2313;48.552;9.370;2022-10-16T04:23:50;16.60;99.90
4602;DHT22;2313;48.552;9.370;2022-10-16T04:26:16;16.70;99.90
4602;DHT22;2313;48.552;9.370;2022-10-16T04:28:42;16.70;99.90
4602;DHT22;2313;48.552;9.370;2022-10-16T04:31:08;16.70;99.90
4602;DHT22;2313;48.552;9.370;2022-10-16T04:33:33;16.70;99.90
4602;DHT22;2313;48.552;9.370;2022-10-16T04:36:00;16.70;99.90
4602;DHT22;2313;48.552;9.370;2022-10-16T04:38:26;16.70;99.90
4602;DHT22;2313;48.552;9.370;2022-10-16T04:40:52;16.70;99.90
4602;DHT22;2313;48.552;9.370;2022-10-16T04:43:18;16.70;99.90
4602;DHT22;2313;48.552;9.370;2022-10-16T04:45:44;16.70;99.90
4602;DHT22;2313;48.552;9.370;2022-10-16T04:48:09;16.80;99.90
4602;DHT22;2313;48.552;9.370;2022-10-16T04:50:35;16.90;99.90
4602;DHT22;2313;48.552;9.370;2022-10-16T04:53:01;16.90;99.90
4602;DHT22;2313;48.552;9.370;2022-10-16T04:55:26;16.80;99.90
4602;DHT22;2313;48.552;9.370;2022-10-16T04:57:52;16.80;99.90
4602;DHT22;2313;48.552;9.370;2022-10-16T05:00:17;16.70;99.90
4602;DHT22;2313;48.552;9.370;2022-10-16T05:02:43;16.70;99.90
4602;DHT22;2313;48.552;9.370;2022-10-16T05:05:09;16.70;99.90
4602;DHT22;2313;48.552;9.370;2022-10-16T05:07:35;16.70;99.90
4602;DHT22;2313;48.552;9.370;2022-10-16T05:10:00;16.70;99.90
4602;DHT22;2313;48.552;9.370;2022-10-16T05:12:26;16.70;99.90
4602;DHT22;2313;48.552;9.370;2022-10-16T05:14:52;16.70;99.90
4602;DHT22;2313;48.552;9.370;2022-10-16T05:17:17;16.80;99.90
4602;DHT22;2313;48.552;9.370;2022-10-16T05:19:43;16.80;99.90
4602;DHT22;2313;48.552;9.370;2022-10-16T05:22:08;16.80;99.90
4602;DHT22;2313;48.552;9.370;2022-10-16T05:24:34;16.70;99.90
4602;DHT22;2313;48.552;9.370;2022-10-16T05:27:00;16.60;99.90
4602;DHT22;2313;48.552;9.370;2022-10-16T05:29:25;16.70;99.90
4602;DHT22;2313;48.552;9.370;2022-10-16T05:31:52;16.70;99.90
4602;DHT22;2313;48.552;9.370;2022-10-16T05:34:18;16.70;99.90
4602;DHT22;2313;48.552;9.370;2022-10-16T05:36:44;16.60;99.90
4602;DHT22;2313;48.552;9.370;2022-10-16T05:39:10;16.60;99.90
4602;DHT22;2313;48.552;9.370;2022-10-16T05:41:36;16.60;99.90
4602;DHT22;2313;48.552;9.370;2022-10-16T05:44:04;16.60;99.90
4602;DHT22;2313;48.552;9.370;2022-10-16T05:46:31;16.50;99.90
4602;DHT22;2313;48.552;9.370;2022-10-16T05:48:57;16.50;99.90
4602;DHT22;2313;48.552;9.370;2022-10-16T05:51:23;16.50;99.90
4602;DHT22;2313;48.552;9.370;2022-10-16T05:53:49;16.60;99.90
4602;DHT22;2313;48.552;9.370;2022-10-16T05:56:14;16.60;99.90
4602;DHT22;2313;48.552;9.370;2022-10-16T05:58:41;16.50;99.90
4602;DHT22;2313;48.552;9.370;2022-10-16T06:01:12;16.50;99.90
4602;DHT22;2313;48.552;9.370;2022-10-16T06:03:38;16.50;99.90
4602;DHT22;2313;48.552;9.370;2022-10-16T06:06:11;16.40;99.90
4602;DHT22;2313;48.552;9.370;2022-10-16T06:08:38;16.40;99.90
4602;DHT22;2313;48.552;9.370;2022-10-16T06:11:06;16.40;99.90
4602;DHT22;2313;48.552;9.370;2022-10-16T06:13:32;16.40;99.90
4602;DHT22;2313;48.552;9.370;2022-10-16T06:15:59;16.40;99.90
4602;DHT22;2313;48.552;9.370;2022-10-16T06:18:25;16.40;99.90
4602;DHT22;2313;48.552;9.370;2022-10-16T06:20:51;16.40;99.90
4602;DHT22;2313;48.552;9.370;2022-10-16T06:23:17;16.40;99.90
4602;DHT22;2313;48.552;9.370;2022-10-16T06:25:43;16.50;99.90
4602;DHT22;2313;48.552;9.370;2022-10-16T06:28:13;16.50;99.90
4602;DHT22;2313;48.552;9.370;2022-10-16T06:30:39;16.50;99.90
4602;DHT22;2313;48.552;9.370;2022-10-16T06:33:04;16.60;99.90
4602;DHT22;2313;48.552;9.370;2022-10-16T06:35:30;16.60;99.90
4602;DHT22;2313;48.552;9.370;2022-10-16T06:37:57;16.60;99.90
4602;DHT22;2313;48.552;9.370;2022-10-16T06:40:23;16.60;99.90
4602;DHT22;2313;48.552;9.370;2022-10-16T06:42:48;16.60;99.90
4602;DHT22;2313;48.552;9.370;2022-10-16T06:45:14;16.70;99.90
4602;DHT22;2313;48.552;9.370;2022-10-16T06:47:40;16.80;99.90
4602;DHT22;2313;48.552;9.370;2022-10-16T06:50:05;16.90;99.90
4602;DHT22;2313;48.552;9.370;2022-10-16T06:52:33;16.90;99.90
4602;DHT22;2313;48.552;9.370;2022-10-16T06:54:59;17.00;99.90
4602;DHT22;2313;48.552;9.370;2022-10-16T06:57:25;17.00;99.90
4602;DHT22;2313;48.552;9.370;2022-10-16T06:59:51;17.10;99.90
4602;DHT22;2313;48.552;9.370;2022-10-16T07:02:16;17.30;99.90
4602;DHT22;2313;48.552;9.370;2022-10-16T07:04:42;17.30;99.90
4602;DHT22;2313;48.552;9.370;2022-10-16T07:07:08;17.30;99.90
4602;DHT22;2313;48.552;9.370;2022-10-16T07:09:33;17.30;99.90
4602;DHT22;2313;48.552;9.370;2022-10-16T07:11:59;17.30;99.90
4602;DHT22;2313;48.552;9.370;2022-10-16T07:14:24;17.40;99.90
4602;DHT22;2313;48.552;9.370;2022-10-16T07:16:50;17.40;99.90
4602;DHT22;2313;48.552;9.370;2022-10-16T07:19:16;17.40;99.90
4602;DHT22;2313;48.552;9.370;2022-10-16T07:21:43;17.40;99.90
4602;DHT22;2313;48.552;9.370;2022-10-16T07:24:16;17.50;99.90
4602;DHT22;2313;48.552;9.370;2022-10-16T07:26:43;17.50;99.90
4602;DHT22;2313;48.552;9.370;2022-10-16T07:29:19;17.50;99.90
4602;DHT22;2313;48.552;9.370;2022-10-16T07:31:45;17.50;99.90
4602;DHT22;2313;48.552;9.370;2022-10-16T07:34:12;17.50;99.90
4602;DHT22;2313;48.552;9.370;2022-10-16T07:36:38;17.50;99.90
4602;DHT22;2313;48.552;9.370;2022-10-16T07:39:04;17.60;99.90
4602;DHT22;2313;48.552;9.370;2022-10-16T07:41:30;17.60;99.90
4602;DHT22;2313;48.552;9.370;2022-10-16T07:43:58;17.60;99.90
4602;DHT22;2313;48.552;9.370;2022-10-16T07:46:26;17.60;99.90
4602;DHT22;2313;48.552;9.370;2022-10-16T07:48:52;17.60;99.90
4602;DHT22;2313;48.552;9.370;2022-10-16T07:51:20;17.60;99.90
4602;DHT22;2313;48.552;9.370;2022-10-16T07:53:46;17.60;99.90
4602;DHT22;2313;48.552;9.370;2022-10-16T07:56:13;17.70;99.90
4602;DHT22;2313;48.552;9.370;2022-10-16T07:58:39;17.70;99.90
4602;DHT22;2313;48.552;9.370;2022-10-16T08:01:06;17.70;99.90
4602;DHT22;2313;48.552;9.370;2022-10-16T08:03:32;17.70;99.90
4602;DHT22;2313;48.552;9.370;2022-10-16T08:05:59;17.70;99.90
4602;DHT22;2313;48.552;9.370;2022-10-16T08:08:25;17.80;99.90
4602;DHT22;2313;48.552;9.370;2022-10-16T08:10:51;17.90;99.90
4602;DHT22;2313;48.552;9.370;2022-10-16T08:13:16;17.90;99.90
4602;DHT22;2313;48.552;9.370;2022-10-16T08:15:43;18.00;99.90
4602;DHT22;2313;48.552;9.370;2022-10-16T08:18:09;18.10;99.90
4602;DHT22;2313;48.552;9.370;2022-10-16T08:20:35;18.20;99.90
4602;DHT22;2313;48.552;9.370;2022-10-16T08:23:01;18.20;99.90
4602;DHT22;2313;48.552;9.370;2022-10-16T08:25:28;18.30;99.90
4602;DHT22;2313;48.552;9.370;2022-10-16T08:27:53;18.30;99.90
4602;DHT22;2313;48.552;9.370;2022-10-16T08:30:20;18.30;99.90
4602;DHT22;2313;48.552;9.370;2022-10-16T08:32:46;18.30;99.90
4602;DHT22;2313;48.552;9.370;2022-10-16T08:35:13;18.40;99.90
4602;DHT22;2313;48.552;9.370;2022-10-16T08:37:40;18.40;99.90
4602;DHT22;2313;48.552;9.370;2022-10-16T08:40:29;18.60;99.90
4602;DHT22;2313;48.552;9.370;2022-10-16T08:43:29;18.60;99.90
4602;DHT22;2313;48.552;9.370;2022-10-16T08:46:25;18.70;99.90
4602;DHT22;2313;48.552;9.370;2022-10-16T08:48:55;18.90;99.90
4602;DHT22;2313;48.552;9.370;2022-10-16T08:51:28;19.00;99.90
4602;DHT22;2313;48.552;9.370;2022-10-16T08:56:41;19.30;99.90
4602;DHT22;2313;48.552;9.370;2022-10-16T08:59:10;19.30;99.90
4602;DHT22;2313;48.552;9.370;2022-10-16T09:01:43;19.40;99.90
4602;DHT22;2313;48.552;9.370;2022-10-16T09:04:25;19.40;99.90
4602;DHT22;2313;48.552;9.370;2022-10-16T09:09:54;19.50;99.90
4602;DHT22;2313;48.552;9.370;2022-10-16T09:15:29;19.40;99.90
4602;DHT22;2313;48.552;9.370;2022-10-16T09:18:26;19.50;99.90
4602;DHT22;2313;48.552;9.370;2022-10-16T09:21:24;19.60;99.90
4602;DHT22;2313;48.552;9.370;2022-10-16T09:23:51;19.70;99.90
4602;DHT22;2313;48.552;9.370;2022-10-16T09:26:17;19.90;99.90
4602;DHT22;2313;48.552;9.370;2022-10-16T09:28:44;20.10;99.90
4602;DHT22;2313;48.552;9.370;2022-10-16T09:31:19;20.30;99.90
4602;DHT22;2313;48.552;9.370;2022-10-16T09:33:50;20.50;99.90
4602;DHT22;2313;48.552;9.370;2022-10-16T09:36:18;20.70;99.90
4602;DHT22;2313;48.552;9.370;2022-10-16T09:38:45;20.70;99.90
4602;DHT22;2313;48.552;9.370;2022-10-16T09:41:20;20.60;99.90
4602;DHT22;2313;48.552;9.370;2022-10-16T09:44:17;20.40;99.90
4602;DHT22;2313;48.552;9.370;2022-10-16T09:46:44;20.30;99.90
4602;DHT22;2313;48.552;9.370;2022-10-16T09:49:25;20.20;99.90
4602;DHT22;2313;48.552;9.370;2022-10-16T09:52:03;20.10;99.90
4602;DHT22;2313;48.552;9.370;2022-10-16T09:54:29;20.10;99.90
4602;DHT22;2313;48.552;9.370;2022-10-16T09:57:07;20.30;99.90
4602;DHT22;2313;48.552;9.370;2022-10-16T09:59:49;20.40;99.90
4602;DHT22;2313;48.552;9.370;2022-10-16T10:02:25;20.30;99.90
4602;DHT22;2313;48.552;9.370;2022-10-16T10:04:53;20.20;99.90
4602;DHT22;2313;48.552;9.370;2022-10-16T10:07:35;20.20;99.90
4602;DHT22;2313;48.552;9.370;2022-10-16T10:10:05;20.10;99.90
4602;DHT22;2313;48.552;9.370;2022-10-16T10:12:32;20.10;99.90
4602;DHT22;2313;48.552;9.370;2022-10-16T10:15:10;20.10;99.90
4602;DHT22;2313;48.552;9.370;2022-10-16T10:17:49;20.20;99.90
4602;DHT22;2313;48.552;9.370;2022-10-16T10:20:34;20.30;99.90
4602;DHT22;2313;48.552;9.370;2022-10-16T10:23:21;20.30;99.90
4602;DHT22;2313;48.552;9.370;2022-10-16T10:26:17;20.20;99.90
4602;DHT22;2313;48.552;9.370;2022-10-16T10:29:07;20.30;99.90
4602;DHT22;2313;48.552;9.370;2022-10-16T10:31:49;20.20;99.90
4602;DHT22;2313;48.552;9.370;2022-10-16T10:39:44;20.70;99.90
4602;DHT22;2313;48.552;9.370;2022-10-16T10:42:28;21.10;99.90
4602;DHT22;2313;48.552;9.370;2022-10-16T10:58:10;24.10;98.20
4602;DHT22;2313;48.552;9.370;2022-10-16T11:00:57;24.70;98.40
4602;DHT22;2313;48.552;9.370;2022-10-16T11:06:40;26.70;96.60
4602;DHT22;2313;48.552;9.370;2022-10-16T11:09:22;27.30;91.90
4602;DHT22;2313;48.552;9.370;2022-10-16T11:14:41;26.40;90.50
4602;DHT22;2313;48.552;9.370;2022-10-16T11:25:36;25.70;90.80
4602;DHT22;2313;48.552;9.370;2022-10-16T11:33:51;27.30;90.60
4602;DHT22;2313;48.552;9.370;2022-10-16T11:36:27;27.40;91.20
4602;DHT22;2313;48.552;9.370;2022-10-16T11:39:22;27.40;89.60
4602;DHT22;2313;48.552;9.370;2022-10-16T11:47:35;27.00;87.60
4602;DHT22;2313;48.552;9.370;2022-10-16T11:50:25;26.50;86.50
4602;DHT22;2313;48.552;9.370;2022-10-16T11:53:04;26.40;86.10
4602;DHT22;2313;48.552;9.370;2022-10-16T11:55:42;26.40;87.30
4602;DHT22;2313;48.552;9.370;2022-10-16T12:08:45;26.80;86.40
4602;DHT22;2313;48.552;9.370;2022-10-16T12:13:46;26.70;83.20
4602;DHT22;2313;48.552;9.370;2022-10-16T12:18:42;27.00;84.20
4602;DHT22;2313;48.552;9.370;2022-10-16T12:21:16;27.20;83.70
4602;DHT22;2313;48.552;9.370;2022-10-16T12:23:58;27.30;85.00
4602;DHT22;2313;48.552;9.370;2022-10-16T12:26:27;27.30;78.40
4602;DHT22;2313;48.552;9.370;2022-10-16T12:28:54;27.10;80.10
4602;DHT22;2313;48.552;9.370;2022-10-16T12:31:20;27.20;82.90
4602;DHT22;2313;48.552;9.370;2022-10-16T12:34:01;27.20;81.80
4602;DHT22;2313;48.552;9.370;2022-10-16T12:36:36;27.20;78.60
4602;DHT22;2313;48.552;9.370;2022-10-16T12:39:02;27.20;82.40
4602;DHT22;2313;48.552;9.370;2022-10-16T12:41:29;27.10;83.10
4602;DHT22;2313;48.552;9.370;2022-10-16T12:43:56;26.90;79.60
4602;DHT22;2313;48.552;9.370;2022-10-16T12:46:23;26.70;82.60
4602;DHT22;2313;48.552;9.370;2022-10-16T12:48:49;26.60;82.70
4602;DHT22;2313;48.552;9.370;2022-10-16T12:54:14;26.60;82.40
4602;DHT22;2313;48.552;9.370;2022-10-16T12:59:31;26.30;79.90
4602;DHT22;2313;48.552;9.370;2022-10-16T13:05:12;26.10;86.00
4602;DHT22;2313;48.552;9.370;2022-10-16T13:17:21;25.80;83.80
4602;DHT22;2313;48.552;9.370;2022-10-16T13:22:59;25.70;86.20
4602;DHT22;2313;48.552;9.370;2022-10-16T13:28:12;25.70;87.20
4602;DHT22;2313;48.552;9.370;2022-10-16T13:30:52;25.60;87.00
4602;DHT22;2313;48.552;9.370;2022-10-16T13:33:34;25.30;84.20
4602;DHT22;2313;48.552;9.370;2022-10-16T13:36:01;25.20;88.50
4602;DHT22;2313;48.552;9.370;2022-10-16T13:38:29;25.20;90.20
4602;DHT22;2313;48.552;9.370;2022-10-16T13:40:59;25.00;88.90
4602;DHT22;2313;48.552;9.370;2022-10-16T13:43:40;24.90;88.40
4602;DHT22;2313;48.552;9.370;2022-10-16T13:46:14;24.80;90.30
4602;DHT22;2313;48.552;9.370;2022-10-16T13:48:40;24.70;90.90
4602;DHT22;2313;48.552;9.370;2022-10-16T13:51:16;24.70;91.00
4602;DHT22;2313;48.552;9.370;2022-10-16T13:53:42;24.50;90.30
4602;DHT22;2313;48.552;9.370;2022-10-16T13:56:16;24.40;91.40
4602;DHT22;2313;48.552;9.370;2022-10-16T13:59:02;24.30;91.40
4602;DHT22;2313;48.552;9.370;2022-10-16T14:01:30;24.10;91.60
4602;DHT22;2313;48.552;9.370;2022-10-16T14:04:06;24.10;92.00
4602;DHT22;2313;48.552;9.370;2022-10-16T14:06:35;24.10;92.50
4602;DHT22;2313;48.552;9.370;2022-10-16T14:09:28;24.00;93.10
4602;DHT22;2313;48.552;9.370;2022-10-16T14:11:57;23.90;93.80
4602;DHT22;2313;48.552;9.370;2022-10-16T14:14:25;23.90;94.30
4602;DHT22;2313;48.552;9.370;2022-10-16T14:16:52;23.80;93.10
4602;DHT22;2313;48.552;9.370;2022-10-16T14:19:27;23.80;94.00
4602;DHT22;2313;48.552;9.370;2022-10-16T14:21:53;23.80;96.50
4602;DHT22;2313;48.552;9.370;2022-10-16T14:24:27;23.60;99.60
4602;DHT22;2313;48.552;9.370;2022-10-16T14:26:53;23.40;98.40
4602;DHT22;2313;48.552;9.370;2022-10-16T14:29:22;23.30;99.90
4602;DHT22;2313;48.552;9.370;2022-10-16T14:34:31;23.20;99.90
4602;DHT22;2313;48.552;9.370;2022-10-16T14:37:13;23.10;99.90
4602;DHT22;2313;48.552;9.370;2022-10-16T14:39:41;23.00;99.90
4602;DHT22;2313;48.552;9.370;2022-10-16T14:42:17;22.90;99.90
4602;DHT22;2313;48.552;9.370;2022-10-16T14:44:45;22.80;99.90
4602;DHT22;2313;48.552;9.370;2022-10-16T14:47:16;22.70;99.90
4602;DHT22;2313;48.552;9.370;2022-10-16T14:49:47;22.60;99.90
4602;DHT22;2313;48.552;9.370;2022-10-16T14:52:13;22.50;99.90
4602;DHT22;2313;48.552;9.370;2022-10-16T14:54:40;22.50;99.90
4602;DHT22;2313;48.552;9.370;2022-10-16T14:57:32;22.40;99.90
4602;DHT22;2313;48.552;9.370;2022-10-16T14:59:59;22.30;99.90
4602;DHT22;2313;48.552;9.370;2022-10-16T15:02:35;22.20;99.90
4602;DHT22;2313;48.552;9.370;2022-10-16T15:05:25;22.10;99.90
4602;DHT22;2313;48.552;9.370;2022-10-16T15:07:53;22.00;99.90
4602;DHT22;2313;48.552;9.370;2022-10-16T15:10:20;22.00;99.90
4602;DHT22;2313;48.552;9.370;2022-10-16T15:12:47;22.00;99.90
4602;DHT22;2313;48.552;9.370;2022-10-16T15:17:59;21.70;99.90
4602;DHT22;2313;48.552;9.370;2022-10-16T15:20:27;21.70;99.90
4602;DHT22;2313;48.552;9.370;2022-10-16T15:22:54;21.60;99.90
4602;DHT22;2313;48.552;9.370;2022-10-16T15:27:58;21.40;99.90
4602;DHT22;2313;48.552;9.370;2022-10-16T15:30:25;21.30;99.90
4602;DHT22;2313;48.552;9.370;2022-10-16T15:32:51;21.20;99.90
4602;DHT22;2313;48.552;9.370;2022-10-16T15:35:16;21.00;99.90
4602;DHT22;2313;48.552;9.370;2022-10-16T15:37:42;21.00;99.90
4602;DHT22;2313;48.552;9.370;2022-10-16T15:40:10;21.00;99.90
4602;DHT22;2313;48.552;9.370;2022-10-16T15:42:38;21.00;99.90
4602;DHT22;2313;48.552;9.370;2022-10-16T15:45:05;21.00;99.90
4602;DHT22;2313;48.552;9.370;2022-10-16T15:47:31;21.00;99.90
4602;DHT22;2313;48.552;9.370;2022-10-16T15:49:57;21.00;99.90
4602;DHT22;2313;48.552;9.370;2022-10-16T15:52:23;21.00;99.90
4602;DHT22;2313;48.552;9.370;2022-10-16T15:54:49;20.90;99.90
4602;DHT22;2313;48.552;9.370;2022-10-16T15:57:14;20.90;99.90
4602;DHT22;2313;48.552;9.370;2022-10-16T15:59:40;20.90;99.90
4602;DHT22;2313;48.552;9.370;2022-10-16T16:02:05;20.80;99.90
4602;DHT22;2313;48.552;9.370;2022-10-16T16:04:31;20.70;99.90
4602;DHT22;2313;48.552;9.370;2022-10-16T16:06:57;20.70;99.90
4602;DHT22;2313;48.552;9.370;2022-10-16T16:09:23;20.60;99.90
4602;DHT22;2313;48.552;9.370;2022-10-16T16:11:49;20.50;99.90
4602;DHT22;2313;48.552;9.370;2022-10-16T16:14:16;20.40;99.90
4602;DHT22;2313;48.552;9.370;2022-10-16T16:16:42;20.40;99.90
4602;DHT22;2313;48.552;9.370;2022-10-16T16:19:08;20.40;99.90
4602;DHT22;2313;48.552;9.370;2022-10-16T16:21:34;20.30;99.90
4602;DHT22;2313;48.552;9.370;2022-10-16T16:24:00;20.30;99.90
4602;DHT22;2313;48.552;9.370;2022-10-16T16:26:29;20.20;99.90
4602;DHT22;2313;48.552;9.370;2022-10-16T16:29:00;20.20;99.90
4602;DHT22;2313;48.552;9.370;2022-10-16T16:31:27;20.10;99.90
4602;DHT22;2313;48.552;9.370;2022-10-16T16:33:53;20.10;99.90
4602;DHT22;2313;48.552;9.370;2022-10-16T16:36:19;20.10;99.90
4602;DHT22;2313;48.552;9.370;2022-10-16T16:38:45;20.10;99.90
4602;DHT22;2313;48.552;9.370;2022-10-16T16:43:38;20.00;99.90
4602;DHT22;2313;48.552;9.370;2022-10-16T16:46:03;20.00;99.90
4602;DHT22;2313;48.552;9.370;2022-10-16T16:48:29;19.90;99.90
4602;DHT22;2313;48.552;9.370;2022-10-16T16:50:55;19.90;99.90
4602;DHT22;2313;48.552;9.370;2022-10-16T16:53:21;19.80;99.90
4602;DHT22;2313;48.552;9.370;2022-10-16T16:55:48;19.70;99.90
4602;DHT22;2313;48.552;9.370;2022-10-16T16:58:13;19.60;99.90
4602;DHT22;2313;48.552;9.370;2022-10-16T17:00:45;19.50;99.90
4602;DHT22;2313;48.552;9.370;2022-10-16T17:03:11;19.40;99.90
4602;DHT22;2313;48.552;9.370;2022-10-16T17:05:36;19.40;99.90
4602;DHT22;2313;48.552;9.370;2022-10-16T17:08:02;19.20;99.90
4602;DHT22;2313;48.552;9.370;2022-10-16T17:10:31;19.20;99.90
4602;DHT22;2313;48.552;9.370;2022-10-16T17:12:57;19.20;99.90
4602;DHT22;2313;48.552;9.370;2022-10-16T17:15:22;19.10;99.90
4602;DHT22;2313;48.552;9.370;2022-10-16T17:17:48;19.10;99.90
4602;DHT22;2313;48.552;9.370;2022-10-16T17:20:14;19.20;99.90
4602;DHT22;2313;48.552;9.370;2022-10-16T17:22:40;19.20;99.90
4602;DHT22;2313;48.552;9.370;2022-10-16T17:25:06;19.20;99.90
4602;DHT22;2313;48.552;9.370;2022-10-16T17:27:33;19.20;99.90
4602;DHT22;2313;48.552;9.370;2022-10-16T17:30:01;19.30;99.90
4602;DHT22;2313;48.552;9.370;2022-10-16T17:32:26;19.30;99.90
4602;DHT22;2313;48.552;9.370;2022-10-16T17:34:52;19.50;99.90
4602;DHT22;2313;48.552;9.370;2022-10-16T17:37:18;19.50;99.90
4602;DHT22;2313;48.552;9.370;2022-10-16T17:39:43;19.60;99.90
4602;DHT22;2313;48.552;9.370;2022-10-16T17:42:09;19.60;99.90
4602;DHT22;2313;48.552;9.370;2022-10-16T17:44:34;19.60;99.90
4602;DHT22;2313;48.552;9.370;2022-10-16T17:47:00;19.60;99.90
4602;DHT22;2313;48.552;9.370;2022-10-16T17:49:26;19.60;99.90
4602;DHT22;2313;48.552;9.370;2022-10-16T17:51:52;19.60;99.90
4602;DHT22;2313;48.552;9.370;2022-10-16T17:54:18;19.70;99.90
4602;DHT22;2313;48.552;9.370;2022-10-16T17:56:44;19.70;99.90
4602;DHT22;2313;48.552;9.370;2022-10-16T17:59:12;19.80;99.90
4602;DHT22;2313;48.552;9.370;2022-10-16T18:01:39;19.80;99.90
4602;DHT22;2313;48.552;9.370;2022-10-16T18:04:11;19.70;99.90
4602;DHT22;2313;48.552;9.370;2022-10-16T18:06:38;19.70;99.90
4602;DHT22;2313;48.552;9.370;2022-10-16T18:09:05;19.70;99.90
4602;DHT22;2313;48.552;9.370;2022-10-16T18:11:32;19.60;99.90
4602;DHT22;2313;48.552;9.370;2022-10-16T18:13:58;19.60;99.90